Time;durP1;ratioP1;P1;durP2;ratioP2;P2;SDS_P1;SDS_P2;PMS_P1;PMS_P2;Temp;Humidity;BMP_temperature;BMP_pressure;BME280_temperature;BME280_humidity;BME280_pressure;Samples;Min_cycle;Max_cycle;Signal;HPM_P1;HPM_P2
2021/12/30 00:01:34;;;;;;;24.30;11.90;;;;;5.30;97087.40;;;;108941;1272;42548;-70
2021/12/30 00:04:04;;;;;;;24.20;11.70;;;;;5.30;97083.80;;;;109197;1272;41252;-70
2021/12/30 00:06:39;;;;;;;26.60;12.70;;;;;5.32;97092.40;;;;109222;1274;41617;-70
2021/12/30 00:09:11;;;;;;;25.10;12.90;;;;;5.34;97099.80;;;;109067;1274;41604;-67
2021/12/30 00:11:41;;;;;;;27.60;13.90;;;;;5.30;97102.80;;;;109321;1273;42324;-69
2021/12/30 00:14:11;;;;;;;24.90;13.00;;;;;5.30;97108.40;;;;109261;1273;41129;-67
2021/12/30 00:16:40;;;;;;;22.70;12.00;;;;;5.30;97114.80;;;;109271;1273;41119;-69
2021/12/30 00:19:09;;;;;;;27.50;14.40;;;;;5.30;97117.40;;;;109266;1273;41122;-71
2021/12/30 00:21:39;;;;;;;25.70;14.20;;;;;5.30;97127.00;;;;109275;1273;41128;-68
2021/12/30 00:24:09;;;;;;;28.20;15.10;;;;;5.30;97134.80;;;;109045;1274;41169;-69
2021/12/30 00:26:39;;;;;;;26.40;14.20;;;;;5.30;97143.00;;;;109068;1274;41252;-70
2021/12/30 00:29:08;;;;;;;29.00;14.40;;;;;5.28;97145.20;;;;109061;1275;42287;-69
2021/12/30 00:31:37;;;;;;;32.20;16.60;;;;;5.20;97144.80;;;;109227;1272;41701;-69
2021/12/30 00:34:06;;;;;;;26.20;14.20;;;;;5.20;97150.60;;;;109318;1273;41240;-68
2021/12/30 00:36:35;;;;;;;35.30;17.00;;;;;5.20;97149.00;;;;109240;1273;41166;-71
2021/12/30 00:39:04;;;;;;;34.40;18.10;;;;;5.20;97154.20;;;;109280;1273;42391;-69
2021/12/30 00:41:33;;;;;;;29.70;16.00;;;;;5.18;97152.20;;;;109136;1274;42256;-68
2021/12/30 00:44:02;;;;;;;31.20;15.40;;;;;5.10;97147.60;;;;109271;1274;41148;-70
2021/12/30 00:46:32;;;;;;;27.20;14.80;;;;;5.10;97151.40;;;;109220;1272;41252;-68
2021/12/30 00:49:01;;;;;;;31.80;17.10;;;;;5.12;97152.60;;;;109220;1272;41335;-68
2021/12/30 00:51:30;;;;;;;30.30;15.80;;;;;5.10;97158.00;;;;108774;1274;448425;-68
2021/12/30 00:53:59;;;;;;;30.80;15.90;;;;;5.10;97166.20;;;;109220;1273;41625;-68
2021/12/30 00:56:28;;;;;;;29.70;15.60;;;;;5.08;97168.20;;;;109213;1274;41139;-69
2021/12/30 00:58:57;;;;;;;24.60;13.80;;;;;5.06;97162.60;;;;109270;1273;41571;-70
2021/12/30 01:01:26;;;;;;;25.70;12.60;;;;;5.04;97172.80;;;;108990;1273;40881;-68
2021/12/30 01:03:56;;;;;;;22.30;10.80;;;;;5.10;97171.00;;;;109144;1270;41159;-69
2021/12/30 01:06:25;;;;;;;22.90;11.00;;;;;5.10;97173.80;;;;109110;1272;41888;-70
2021/12/30 01:08:56;;;;;;;20.80;10.10;;;;;5.10;97170.20;;;;109070;1275;41709;-70
2021/12/30 01:11:26;;;;;;;20.90;10.30;;;;;5.20;97173.80;;;;109249;1274;41445;-70
2021/12/30 01:14:03;;;;;;;20.10;10.70;;;;;5.20;97174.20;;;;109111;1274;41151;-69
2021/12/30 01:16:41;;;;;;;22.10;10.80;;;;;5.26;97174.60;;;;109013;1275;41303;-67
2021/12/30 01:21:44;;;;;;;23.80;12.90;;;;;5.30;97179.80;;;;108990;1275;41458;-69
2021/12/30 01:24:13;;;;;;;20.60;10.80;;;;;5.30;97179.80;;;;109106;1272;41182;-70
2021/12/30 01:26:43;;;;;;;21.30;10.70;;;;;5.28;97178.80;;;;109348;1271;41770;-69
2021/12/30 01:29:13;;;;;;;21.20;10.50;;;;;5.30;97179.00;;;;109270;1274;42375;-71
2021/12/30 01:31:42;;;;;;;19.00;9.60;;;;;5.30;97177.80;;;;109220;1273;41129;-69
2021/12/30 01:34:21;;;;;;;19.60;9.50;;;;;5.30;97174.60;;;;109269;1273;41129;-71
2021/12/30 01:36:50;;;;;;;17.00;8.60;;;;;5.30;97169.00;;;;109284;1273;41262;-71
2021/12/30 01:39:21;;;;;;;16.50;8.40;;;;;5.34;97172.20;;;;109286;1273;41140;-70
2021/12/30 01:41:52;;;;;;;18.00;8.80;;;;;5.40;97172.40;;;;109147;1274;41259;-68
2021/12/30 01:44:22;;;;;;;17.40;8.20;;;;;5.40;97173.80;;;;109243;1273;41592;-69
2021/12/30 01:46:52;;;;;;;16.60;9.00;;;;;5.40;97174.40;;;;109215;1273;41580;-69
2021/12/30 01:49:21;;;;;;;16.50;8.20;;;;;5.42;97176.80;;;;109235;1272;41361;-70
2021/12/30 01:51:53;;;;;;;15.20;7.70;;;;;5.42;97175.00;;;;109238;1272;41960;-68
2021/12/30 01:54:25;;;;;;;18.20;9.10;;;;;5.46;97174.20;;;;108874;1274;41657;-68
2021/12/30 01:57:00;;;;;;;18.80;9.70;;;;;5.40;97179.20;;;;108967;1272;41229;-68
2021/12/30 01:59:29;;;;;;;19.00;9.90;;;;;5.40;97181.80;;;;109004;1275;41140;-70
2021/12/30 02:01:59;;;;;;;18.30;8.70;;;;;5.36;97182.20;;;;109012;1275;41133;-67
2021/12/30 02:04:33;;;;;;;16.30;8.20;;;;;5.40;97187.20;;;;109141;1274;41137;-71
2021/12/30 02:07:03;;;;;;;17.30;8.60;;;;;5.40;97189.00;;;;109142;1273;41703;-68
2021/12/30 02:09:33;;;;;;;16.10;7.90;;;;;5.40;97184.40;;;;109072;1272;41327;-70
2021/12/30 02:12:04;;;;;;;17.10;8.20;;;;;5.40;97184.80;;;;109070;1274;41815;-68
2021/12/30 02:14:35;;;;;;;16.80;7.90;;;;;5.40;97190.20;;;;109217;1273;41129;-70
2021/12/30 02:17:05;;;;;;;15.20;7.70;;;;;5.40;97190.80;;;;109152;1274;41230;-71
2021/12/30 02:19:35;;;;;;;15.90;7.90;;;;;5.40;97191.60;;;;109046;1274;41430;-70
2021/12/30 02:22:05;;;;;;;15.40;8.10;;;;;5.40;97195.00;;;;109072;1273;41172;-68
2021/12/30 02:24:37;;;;;;;13.70;7.10;;;;;5.40;97199.40;;;;109289;1274;41135;-69
2021/12/30 02:27:06;;;;;;;17.80;8.40;;;;;5.44;97198.40;;;;109246;1273;41252;-70
2021/12/30 02:29:36;;;;;;;15.90;7.80;;;;;5.44;97201.00;;;;109291;1274;41596;-69
2021/12/30 02:32:06;;;;;;;14.90;7.50;;;;;5.50;97201.20;;;;109240;1273;41146;-70
2021/12/30 02:34:38;;;;;;;16.00;7.50;;;;;5.50;97210.00;;;;109115;1274;41259;-69
2021/12/30 02:37:09;;;;;;;16.30;7.80;;;;;5.50;97211.60;;;;109041;1274;41262;-69
2021/12/30 02:39:40;;;;;;;;;;;;;5.50;97221.80;;;;109106;1274;41128;-70
2021/12/30 02:42:09;;;;;;;14.30;6.90;;;;;5.48;97222.00;;;;109133;1274;41135;-71
2021/12/30 02:44:39;;;;;;;16.30;7.90;;;;;5.50;97223.20;;;;109281;1273;41166;-69
2021/12/30 02:47:12;;;;;;;15.40;8.10;;;;;5.50;97217.60;;;;109064;1273;41139;-68
2021/12/30 02:49:42;;;;;;;16.40;8.00;;;;;5.50;97222.80;;;;109168;1273;41144;-70
2021/12/30 02:52:11;;;;;;;15.10;7.90;;;;;5.50;97222.00;;;;109300;1272;41252;-70
2021/12/30 02:54:42;;;;;;;19.40;7.80;;;;;5.50;97225.40;;;;109101;1275;41591;-70
2021/12/30 02:57:11;;;;;;;16.40;7.70;;;;;5.50;97231.40;;;;109311;1273;41381;-68
2021/12/30 02:59:40;;;;;;;15.40;7.50;;;;;5.50;97231.00;;;;109107;1273;41934;-69
2021/12/30 03:02:10;;;;;;;17.70;8.20;;;;;5.50;97231.20;;;;109216;1274;41704;-69
2021/12/30 03:04:41;;;;;;;14.60;7.30;;;;;5.50;97232.40;;;;109021;1273;41602;-70
2021/12/30 03:07:10;;;;;;;18.70;8.70;;;;;5.50;97232.60;;;;109327;1273;41150;-69
2021/12/30 03:09:40;;;;;;;20.40;10.20;;;;;5.50;97232.80;;;;109272;1273;41146;-70
2021/12/30 03:12:10;;;;;;;17.80;9.40;;;;;5.50;97238.20;;;;109286;1273;41139;-68
2021/12/30 03:14:42;;;;;;;20.40;10.50;;;;;5.50;97239.60;;;;109310;1273;41129;-67
2021/12/30 03:17:12;;;;;;;17.50;9.10;;;;;5.50;97247.00;;;;109308;1273;41585;-71
2021/12/30 03:19:41;;;;;;;16.20;8.70;;;;;5.50;97256.60;;;;109282;1273;41246;-70
2021/12/30 03:22:12;;;;;;;15.60;7.90;;;;;5.56;97257.60;;;;109237;1273;41239;-69
2021/12/30 03:24:41;;;;;;;15.30;7.60;;;;;5.58;97264.00;;;;109072;1274;41140;-68
2021/12/30 03:27:11;;;;;;;15.30;7.40;;;;;5.60;97263.00;;;;108949;1274;41138;-69
2021/12/30 03:29:41;;;;;;;15.50;7.50;;;;;5.58;97267.00;;;;109162;1273;41259;-69
2021/12/30 03:32:11;;;;;;;16.50;8.10;;;;;5.60;97270.20;;;;109296;1272;41259;-71
2021/12/30 03:34:40;;;;;;;16.40;8.40;;;;;5.56;97279.20;;;;109089;1274;41508;-71
2021/12/30 03:37:10;;;;;;;15.80;8.40;;;;;5.50;97286.80;;;;109175;1273;41414;-68
2021/12/30 03:39:40;;;;;;;14.80;7.70;;;;;5.50;97295.60;;;;109273;1272;41627;-69
2021/12/30 03:42:10;;;;;;;16.60;8.20;;;;;5.48;97293.60;;;;109313;1273;42425;-69
2021/12/30 03:44:39;;;;;;;16.80;8.90;;;;;5.40;97301.40;;;;109317;1272;41125;-69
2021/12/30 03:47:16;;;;;;;18.40;9.30;;;;;5.40;97308.40;;;;109303;1272;41244;-70
2021/12/30 03:49:46;;;;;;;17.00;8.40;;;;;5.32;97312.20;;;;109299;1273;41622;-70
2021/12/30 03:52:23;;;;;;;16.60;8.30;;;;;5.30;97318.40;;;;109269;1273;41447;-68
2021/12/30 03:54:53;;;;;;;15.90;8.40;;;;;5.30;97325.00;;;;108984;1274;41260;-68
2021/12/30 03:57:22;;;;;;;17.50;8.20;;;;;5.30;97319.00;;;;109117;1274;42314;-69
2021/12/30 03:59:52;;;;;;;15.70;7.60;;;;;5.34;97321.60;;;;108930;1274;41798;-71
2021/12/30 04:02:22;;;;;;;15.80;7.50;;;;;5.40;97325.40;;;;109205;1273;41426;-69
2021/12/30 04:04:52;;;;;;;16.50;8.40;;;;;5.40;97327.60;;;;109335;1273;41960;-70
2021/12/30 04:07:21;;;;;;;16.80;8.10;;;;;5.40;97329.00;;;;109210;1272;41162;-68
2021/12/30 04:09:51;;;;;;;18.80;8.70;;;;;5.40;97333.00;;;;109337;1273;41134;-69
2021/12/30 04:12:21;;;;;;;17.00;7.80;;;;;5.40;97342.80;;;;108878;1275;41148;-70
2021/12/30 04:14:52;;;;;;;16.30;8.20;;;;;5.42;97340.40;;;;109389;1274;41152;-70
2021/12/30 04:17:22;;;;;;;15.20;7.90;;;;;5.48;97346.60;;;;109383;1273;41428;-69
2021/12/30 04:19:52;;;;;;;17.30;8.30;;;;;5.50;97351.80;;;;109361;1274;41722;-68
2021/12/30 04:22:22;;;;;;;16.90;8.20;;;;;5.50;97350.20;;;;109137;1273;41225;-67
2021/12/30 04:24:51;;;;;;;17.30;8.40;;;;;5.50;97349.00;;;;109103;1273;41416;-68
2021/12/30 04:27:21;;;;;;;16.00;7.70;;;;;5.50;97351.80;;;;109196;1273;41129;-69
2021/12/30 04:29:51;;;;;;;13.50;6.70;;;;;5.50;97356.40;;;;109036;1274;41597;-67
2021/12/30 04:32:20;;;;;;;17.70;7.40;;;;;5.50;97367.20;;;;109148;1274;41933;-70
2021/12/30 04:34:49;;;;;;;15.10;7.60;;;;;5.50;97364.80;;;;108840;1274;42396;-68
2021/12/30 04:37:19;;;;;;;16.20;7.50;;;;;5.50;97370.60;;;;109275;1272;41259;-67
2021/12/30 04:39:48;;;;;;;15.30;7.70;;;;;5.50;97370.40;;;;109163;1274;41129;-68
2021/12/30 04:42:18;;;;;;;14.60;7.00;;;;;5.50;97372.00;;;;109336;1273;41137;-67
2021/12/30 04:44:48;;;;;;;14.90;7.40;;;;;5.50;97379.20;;;;109048;1274;41275;-67
2021/12/30 04:47:19;;;;;;;16.00;7.00;;;;;5.50;97380.20;;;;109262;1273;41159;-69
2021/12/30 04:49:50;;;;;;;15.10;6.70;;;;;5.50;97377.00;;;;109127;1274;41145;-69
2021/12/30 04:52:19;;;;;;;15.30;7.50;;;;;5.50;97373.00;;;;109167;1273;41680;-68
2021/12/30 04:54:49;;;;;;;14.40;6.60;;;;;5.50;97375.00;;;;109066;1275;42158;-68
2021/12/30 04:57:19;;;;;;;12.90;6.10;;;;;5.50;97376.40;;;;109387;1271;41195;-71
2021/12/30 04:59:48;;;;;;;16.60;7.50;;;;;5.50;97375.60;;;;109350;1273;41134;-68
2021/12/30 05:02:18;;;;;;;16.50;7.90;;;;;5.50;97386.40;;;;109352;1272;41643;-70
2021/12/30 05:04:47;;;;;;;18.10;8.90;;;;;5.46;97388.60;;;;109361;1273;41148;-68
2021/12/30 05:07:16;;;;;;;20.00;9.30;;;;;5.40;97398.20;;;;109371;1273;41289;-68
2021/12/30 05:09:45;;;;;;;17.40;7.80;;;;;5.34;97409.60;;;;109204;1274;41447;-70
2021/12/30 05:12:14;;;;;;;18.30;8.60;;;;;5.30;97411.80;;;;109119;1274;41418;-67
2021/12/30 05:14:44;;;;;;;15.90;8.00;;;;;5.30;97415.60;;;;109218;1273;41125;-69
2021/12/30 05:17:13;;;;;;;16.70;8.10;;;;;5.24;97424.20;;;;109183;1274;42317;-70
2021/12/30 05:19:42;;;;;;;15.80;7.90;;;;;5.20;97430.60;;;;109100;1274;41138;-69
2021/12/30 05:22:12;;;;;;;18.20;8.60;;;;;5.20;97438.60;;;;109211;1272;41713;-67
2021/12/30 05:24:41;;;;;;;16.30;8.70;;;;;5.20;97435.80;;;;109148;1274;41144;-68
2021/12/30 05:27:10;;;;;;;17.60;8.50;;;;;5.24;97446.00;;;;109102;1272;41398;-69
2021/12/30 05:29:40;;;;;;;16.30;7.90;;;;;5.26;97437.40;;;;109213;1274;41184;-68
2021/12/30 05:32:09;;;;;;;14.80;7.50;;;;;5.30;97446.20;;;;109326;1273;42553;-69
2021/12/30 05:34:38;;;;;;;17.10;8.10;;;;;5.30;97450.80;;;;109285;1273;42538;-69
2021/12/30 05:37:07;;;;;;;14.70;7.80;;;;;5.30;97450.40;;;;109404;1272;41245;-68
2021/12/30 05:39:41;;;;;;;19.30;8.60;;;;;5.30;97455.80;;;;109337;1273;41131;-68
2021/12/30 05:42:10;;;;;;;18.20;8.80;;;;;5.30;97460.40;;;;109093;1274;41888;-68
2021/12/30 05:44:40;;;;;;;17.90;9.30;;;;;5.30;97470.60;;;;109047;1274;41151;-67
2021/12/30 05:47:10;;;;;;;15.70;8.10;;;;;5.30;97477.80;;;;109042;1272;41140;-68
2021/12/30 05:49:40;;;;;;;15.60;8.20;;;;;5.30;97484.40;;;;109000;1274;41259;-70
2021/12/30 05:52:10;;;;;;;17.50;8.20;;;;;5.28;97484.60;;;;109110;1275;41243;-68
2021/12/30 05:54:40;;;;;;;15.60;8.00;;;;;5.24;97482.40;;;;109132;1273;41130;-67
2021/12/30 05:57:10;;;;;;;14.00;6.90;;;;;5.20;97487.60;;;;109033;1274;41170;-70
2021/12/30 05:59:39;;;;;;;17.40;7.50;;;;;5.20;97485.40;;;;109224;1272;41630;-70
2021/12/30 06:02:08;;;;;;;13.90;7.10;;;;;5.24;97487.40;;;;109157;1274;41140;-70
2021/12/30 06:04:37;;;;;;;16.10;7.40;;;;;5.30;97492.60;;;;108922;1274;41236;-67
2021/12/30 06:07:08;;;;;;;15.00;7.70;;;;;5.30;97495.20;;;;108970;1274;41627;-69
2021/12/30 06:09:38;;;;;;;15.70;7.70;;;;;5.30;97492.40;;;;109202;1273;41539;-69
2021/12/30 06:12:08;;;;;;;15.00;7.60;;;;;5.30;97504.20;;;;109268;1274;41141;-68
2021/12/30 06:14:37;;;;;;;16.80;7.70;;;;;5.30;97506.40;;;;109093;1275;41884;-68
2021/12/30 06:17:06;;;;;;;12.90;6.70;;;;;5.30;97514.40;;;;109168;1274;41600;-69
2021/12/30 06:19:35;;;;;;;14.10;7.00;;;;;5.30;97519.00;;;;109027;1275;41304;-68
2021/12/30 06:22:06;;;;;;;13.70;6.60;;;;;5.30;97520.60;;;;109071;1274;41138;-68
2021/12/30 06:24:35;;;;;;;16.50;7.70;;;;;5.36;97521.00;;;;109127;1272;41257;-68
2021/12/30 06:27:05;;;;;;;14.20;6.70;;;;;5.40;97532.20;;;;109105;1275;41129;-67
2021/12/30 06:29:34;;;;;;;14.60;6.40;;;;;5.40;97528.60;;;;109116;1274;42055;-67
2021/12/30 06:32:05;;;;;;;13.00;6.50;;;;;5.40;97534.00;;;;109023;1275;41159;-68
2021/12/30 06:34:34;;;;;;;;;;;;;5.40;97535.00;;;;109085;1274;41707;-67
2021/12/30 06:37:03;;;;;;;14.20;6.90;;;;;5.32;97541.60;;;;109067;1272;41604;-67
2021/12/30 06:39:32;;;;;;;13.80;6.50;;;;;5.38;97550.40;;;;109104;1274;41608;-69
2021/12/30 06:42:01;;;;;;;14.10;7.00;;;;;5.36;97554.00;;;;109231;1273;41193;-67
2021/12/30 06:44:30;;;;;;;14.10;6.90;;;;;5.36;97558.60;;;;109232;1273;41166;-68
2021/12/30 06:47:01;;;;;;;13.90;6.60;;;;;5.38;97558.80;;;;109285;1273;41586;-68
2021/12/30 06:49:39;;;;;;;;;;;;;5.40;97565.00;;;;109185;1273;41294;-69
2021/12/30 06:52:11;;;;;;;12.90;5.80;;;;;5.40;97573.00;;;;109234;1273;41148;-71
2021/12/30 06:54:40;;;;;;;14.60;6.20;;;;;5.40;97579.80;;;;109386;1273;41255;-71
2021/12/30 06:57:12;;;;;;;13.00;5.90;;;;;5.40;97580.60;;;;109126;1273;41710;-68
2021/12/30 06:59:41;;;;;;;16.00;5.90;;;;;5.40;97577.80;;;;109072;1274;41531;-69
2021/12/30 07:02:10;;;;;;;15.30;7.30;;;;;5.40;97582.60;;;;109108;1274;41161;-68
2021/12/30 07:04:40;;;;;;;13.70;6.70;;;;;5.40;97582.60;;;;108981;1273;41896;-69
2021/12/30 07:07:09;;;;;;;13.20;6.60;;;;;5.40;97584.40;;;;109335;1274;41142;-69
2021/12/30 07:09:38;;;;;;;15.40;7.50;;;;;5.40;97586.20;;;;109301;1273;41128;-68
2021/12/30 07:12:07;;;;;;;16.70;8.50;;;;;5.40;97589.20;;;;109336;1273;41169;-68
2021/12/30 07:14:36;;;;;;;15.00;7.40;;;;;5.40;97589.40;;;;109389;1273;41128;-68
2021/12/30 07:17:05;;;;;;;14.90;7.20;;;;;5.40;97594.40;;;;109277;1274;41144;-68
2021/12/30 07:19:34;;;;;;;15.30;6.80;;;;;5.40;97597.60;;;;109243;1273;41138;-68
2021/12/30 07:22:03;;;;;;;16.00;7.30;;;;;5.40;97605.00;;;;109000;1273;41597;-69
2021/12/30 07:24:46;;;;;;;14.10;6.50;;;;;5.50;97609.40;;;;109055;1274;41844;-69
2021/12/30 07:27:17;;;;;;;14.70;6.60;;;;;5.50;97613.00;;;;109090;1275;41834;-70
2021/12/30 07:29:46;;;;;;;;;;;;;5.56;97615.20;;;;109146;1274;41145;-68
2021/12/30 07:32:15;;;;;;;14.10;6.20;;;;;5.60;97621.00;;;;109149;1274;42372;-68
2021/12/30 07:34:44;;;;;;;14.60;6.10;;;;;5.60;97622.60;;;;109239;1272;41603;-68
2021/12/30 07:37:14;;;;;;;13.40;6.20;;;;;5.70;97622.80;;;;109200;1273;41230;-68
2021/12/30 07:39:44;;;;;;;13.90;6.80;;;;;5.70;97625.40;;;;109171;1273;41397;-68
2021/12/30 07:42:13;;;;;;;13.40;6.50;;;;;5.70;97627.80;;;;109091;1274;41188;-67
2021/12/30 07:44:43;;;;;;;12.90;6.40;;;;;5.70;97628.60;;;;108970;1274;41155;-68
2021/12/30 07:47:18;;;;;;;15.60;6.90;;;;;5.78;97635.00;;;;109006;1275;41160;-68
2021/12/30 07:49:47;;;;;;;12.90;5.70;;;;;5.80;97642.40;;;;109107;1274;41742;-67
2021/12/30 07:52:16;;;;;;;14.40;6.50;;;;;5.80;97643.80;;;;108971;1274;41150;-67
2021/12/30 07:54:45;;;;;;;13.50;6.30;;;;;5.84;97647.40;;;;109055;1274;42381;-69
2021/12/30 07:57:21;;;;;;;14.30;6.50;;;;;5.90;97649.00;;;;109146;1274;41131;-68
2021/12/30 07:59:51;;;;;;;13.50;6.80;;;;;5.90;97656.60;;;;109014;1275;41131;-67
2021/12/30 08:02:20;;;;;;;13.80;6.80;;;;;5.90;97664.80;;;;109161;1274;41578;-67
2021/12/30 08:04:49;;;;;;;14.70;6.60;;;;;5.90;97667.20;;;;109169;1274;41133;-68
2021/12/30 08:07:22;;;;;;;13.20;6.50;;;;;5.90;97677.40;;;;109111;1275;41303;-68
2021/12/30 08:09:51;;;;;;;12.50;5.80;;;;;5.94;97684.80;;;;109117;1269;41882;-67
2021/12/30 08:12:20;;;;;;;14.00;7.10;;;;;6.00;97691.20;;;;109089;1274;41589;-68
2021/12/30 08:14:49;;;;;;;14.30;7.20;;;;;6.00;97692.80;;;;109067;1272;41700;-68
2021/12/30 08:17:18;;;;;;;15.20;7.00;;;;;6.00;97694.20;;;;109056;1272;41689;-69
2021/12/30 08:19:47;;;;;;;16.30;7.10;;;;;6.00;97695.60;;;;109058;1274;41155;-68
2021/12/30 08:22:17;;;;;;;15.90;6.90;;;;;6.00;97697.40;;;;109103;1274;41435;-68
2021/12/30 08:24:46;;;;;;;13.50;6.20;;;;;6.00;97701.80;;;;109094;1274;41221;-68
2021/12/30 08:27:15;;;;;;;13.30;6.10;;;;;6.00;97712.20;;;;109037;1274;41172;-68
2021/12/30 08:29:44;;;;;;;13.70;6.10;;;;;6.06;97717.60;;;;108915;1274;41142;-68
2021/12/30 08:32:13;;;;;;;13.70;6.70;;;;;6.10;97719.00;;;;109184;1274;41930;-67
2021/12/30 08:34:43;;;;;;;13.80;6.20;;;;;6.10;97723.80;;;;109099;1274;41240;-67
2021/12/30 08:37:13;;;;;;;12.60;6.00;;;;;6.20;97722.80;;;;109117;1272;41341;-67
2021/12/30 08:39:43;;;;;;;13.30;6.20;;;;;6.20;97724.80;;;;109097;1274;41128;-68
2021/12/30 08:43:03;;;;;;;12.50;6.10;;;;;6.28;97727.20;;;;105190;1308;542433;-67
2021/12/30 08:45:34;;;;;;;12.30;5.70;;;;;6.30;97727.20;;;;107790;1285;41412;-68
2021/12/30 08:48:03;;;;;;;14.50;6.20;;;;;6.30;97731.60;;;;108630;1272;41977;-68
2021/12/30 08:50:33;;;;;;;13.00;6.30;;;;;6.40;97730.80;;;;108580;1273;41157;-68
2021/12/30 08:53:02;;;;;;;15.20;7.40;;;;;6.40;97733.20;;;;108662;1272;41422;-68
2021/12/30 08:55:31;;;;;;;14.60;6.70;;;;;6.40;97735.00;;;;108564;1270;189651;-68
2021/12/30 08:58:00;;;;;;;13.90;6.50;;;;;6.44;97737.00;;;;108867;1270;41137;-68
2021/12/30 09:00:33;;;;;;;14.90;7.20;;;;;6.50;97741.80;;;;108883;1270;41137;-66
2021/12/30 09:03:04;;;;;;;13.50;6.50;;;;;6.50;97736.20;;;;108779;1270;41642;-67
2021/12/30 09:05:34;;;;;;;16.40;8.50;;;;;6.50;97737.00;;;;108782;1269;41119;-68
2021/12/30 09:08:04;;;;;;;16.90;8.80;;;;;6.50;97740.80;;;;108703;1269;41911;-66
2021/12/30 09:10:37;;;;;;;19.00;9.60;;;;;6.40;97744.40;;;;108709;1270;41157;-68
2021/12/30 09:13:08;;;;;;;16.80;8.90;;;;;6.40;97746.20;;;;108786;1270;41140;-70
2021/12/30 09:15:37;;;;;;;17.00;9.00;;;;;6.30;97741.60;;;;108788;1269;41108;-69
2021/12/30 09:18:07;;;;;;;15.20;7.50;;;;;6.30;97739.20;;;;108846;1268;41589;-69
2021/12/30 09:20:38;;;;;;;16.80;7.90;;;;;6.30;97738.20;;;;108846;1268;41489;-66
2021/12/30 09:23:09;;;;;;;16.50;8.20;;;;;6.32;97743.40;;;;108687;1269;41277;-66
2021/12/30 09:25:39;;;;;;;19.10;9.60;;;;;6.40;97751.80;;;;108762;1270;41585;-65
2021/12/30 09:28:11;;;;;;;15.80;8.30;;;;;6.40;97754.40;;;;108737;1271;41233;-66
2021/12/30 09:30:42;;;;;;;18.00;8.90;;;;;6.40;97758.00;;;;108825;1270;42567;-68
2021/12/30 09:33:15;;;;;;;18.30;10.10;;;;;6.50;97754.40;;;;108659;1270;41227;-65
2021/12/30 09:35:47;;;;;;;19.20;9.30;;;;;6.50;97765.60;;;;108592;1272;41136;-67
2021/12/30 09:38:20;;;;;;;18.90;9.90;;;;;6.46;97771.20;;;;108630;1272;42360;-69
2021/12/30 09:40:49;;;;;;;22.70;11.80;;;;;6.48;97763.80;;;;108637;1271;41138;-67
2021/12/30 09:43:18;;;;;;;19.00;10.30;;;;;6.40;97769.20;;;;108697;1270;41130;-68
2021/12/30 09:45:47;;;;;;;21.60;11.10;;;;;6.40;97766.40;;;;108739;1270;41117;-70
2021/12/30 09:48:17;;;;;;;23.30;11.80;;;;;6.40;97772.80;;;;108764;1271;41681;-65
2021/12/30 09:50:50;;;;;;;23.60;10.90;;;;;6.40;97774.20;;;;108705;1269;42150;-69
2021/12/30 09:53:23;;;;;;;24.20;11.00;;;;;6.40;97771.40;;;;108730;1270;41230;-71
2021/12/30 09:55:56;;;;;;;21.70;10.50;;;;;6.40;97772.60;;;;108731;1271;42181;-66
2021/12/30 09:58:27;;;;;;;22.80;12.50;;;;;6.40;97764.40;;;;108676;1271;41257;-67
2021/12/30 10:00:57;;;;;;;25.10;12.70;;;;;6.46;97771.80;;;;108750;1269;41150;-67
2021/12/30 10:03:27;;;;;;;19.90;11.10;;;;;6.40;97776.00;;;;108665;1270;41490;-67
2021/12/30 10:06:05;;;;;;;23.20;12.60;;;;;6.40;97780.00;;;;108542;1273;41143;-65
2021/12/30 10:08:40;;;;;;;21.20;11.20;;;;;6.32;97775.60;;;;108622;1273;41123;-69
2021/12/30 10:11:14;;;;;;;23.50;11.00;;;;;6.32;97765.60;;;;108658;1271;41203;-67
2021/12/30 10:13:56;;;;;;;22.70;11.80;;;;;6.38;97766.80;;;;108722;1271;41583;-66
2021/12/30 10:16:25;;;;;;;22.20;12.80;;;;;6.40;97765.40;;;;108741;1271;41781;-68
2021/12/30 10:18:58;;;;;;;23.20;11.40;;;;;6.40;97761.60;;;;108706;1269;41267;-70
2021/12/30 10:21:37;;;;;;;24.30;12.40;;;;;6.40;97763.20;;;;108742;1271;41302;-70
2021/12/30 10:24:09;;;;;;;21.90;11.80;;;;;6.40;97760.00;;;;108744;1271;41452;-66
2021/12/30 10:26:51;;;;;;;22.30;11.90;;;;;6.50;97761.80;;;;108695;1271;41106;-66
2021/12/30 10:29:20;;;;;;;22.60;12.60;;;;;6.50;97767.00;;;;108719;1271;41125;-67
2021/12/30 10:31:50;;;;;;;21.80;11.70;;;;;6.50;97762.60;;;;108610;1271;41566;-70
2021/12/30 10:34:20;;;;;;;21.40;12.20;;;;;6.42;97757.40;;;;108785;1271;41136;-69
2021/12/30 10:36:51;;;;;;;22.60;12.00;;;;;6.46;97757.20;;;;108755;1271;41228;-69
2021/12/30 10:39:26;;;;;;;23.20;12.90;;;;;6.42;97754.00;;;;108739;1271;41158;-65
2021/12/30 10:41:58;;;;;;;24.30;13.60;;;;;6.40;97753.20;;;;108736;1269;41145;-71
2021/12/30 10:45:06;;;;;;;25.60;13.30;;;;;6.40;97754.00;;;;108654;1269;41146;-67
2021/12/30 10:47:55;;;;;;;22.20;12.80;;;;;6.30;97745.00;;;;108786;1271;41870;-69
2021/12/30 10:50:24;;;;;;;24.90;12.90;;;;;6.30;97743.60;;;;108726;1271;41540;-68
2021/12/30 10:52:55;;;;;;;25.10;13.00;;;;;6.30;97737.00;;;;108702;1271;41107;-70
2021/12/30 10:55:25;;;;;;;23.90;13.10;;;;;6.26;97734.80;;;;108735;1271;41122;-68
2021/12/30 10:57:55;;;;;;;24.80;12.70;;;;;6.30;97728.80;;;;108729;1271;41174;-69
2021/12/30 11:00:30;;;;;;;24.10;13.30;;;;;6.34;97726.20;;;;108664;1270;41229;-68
2021/12/30 11:03:27;;;;;;;23.60;13.40;;;;;6.48;97728.80;;;;108711;1268;42352;-70
2021/12/30 11:06:13;;;;;;;21.50;11.90;;;;;6.50;97729.20;;;;108769;1270;41323;-68
2021/12/30 11:08:43;;;;;;;23.60;12.40;;;;;6.50;97722.40;;;;108770;1268;41893;-69
2021/12/30 11:11:26;;;;;;;24.40;13.30;;;;;6.60;97723.80;;;;108798;1268;41214;-69
2021/12/30 11:14:09;;;;;;;23.30;12.90;;;;;6.60;97724.80;;;;108811;1268;41360;-67
2021/12/30 11:17:07;;;;;;;21.90;11.50;;;;;6.70;97723.60;;;;108704;1269;42486;-68
2021/12/30 11:19:41;;;;;;;21.60;11.10;;;;;6.90;97725.20;;;;108799;1270;41578;-66
2021/12/30 11:22:22;;;;;;;25.60;14.10;;;;;7.00;97723.80;;;;108717;1270;41176;-66
2021/12/30 11:24:54;;;;;;;25.30;13.80;;;;;7.10;97725.60;;;;108803;1268;41211;-65
2021/12/30 11:27:24;;;;;;;23.70;13.30;;;;;7.00;97719.60;;;;108816;1268;41688;-66
2021/12/30 11:29:57;;;;;;;22.10;12.80;;;;;7.10;97718.80;;;;108729;1270;42436;-67
2021/12/30 11:32:28;;;;;;;23.70;12.70;;;;;7.10;97728.80;;;;108733;1268;41281;-66
2021/12/30 11:34:57;;;;;;;20.80;11.60;;;;;7.20;97732.40;;;;108763;1268;41140;-66
2021/12/30 11:37:26;;;;;;;21.90;12.50;;;;;7.12;97732.00;;;;108794;1268;41154;-66
2021/12/30 11:39:59;;;;;;;20.40;11.30;;;;;7.10;97738.20;;;;108778;1268;41133;-66
2021/12/30 11:42:48;;;;;;;21.00;11.50;;;;;7.20;97737.60;;;;108775;1268;41240;-69
2021/12/30 11:45:31;;;;;;;21.60;11.80;;;;;7.20;97740.60;;;;108651;1270;41682;-68
2021/12/30 11:48:25;;;;;;;23.80;12.20;;;;;7.20;97739.40;;;;108717;1269;41456;-67
2021/12/30 11:51:07;;;;;;;24.00;12.40;;;;;7.20;97738.60;;;;108828;1269;41856;-66
2021/12/30 11:53:38;;;;;;;22.30;11.60;;;;;7.20;97743.20;;;;108777;1269;41131;-68
2021/12/30 11:56:24;;;;;;;21.10;10.60;;;;;7.10;97743.40;;;;108808;1269;41127;-68
2021/12/30 11:58:58;;;;;;;18.20;10.00;;;;;7.10;97739.80;;;;108700;1270;41236;-67
2021/12/30 12:01:29;;;;;;;23.80;13.10;;;;;7.20;97739.80;;;;108666;1268;41118;-67
2021/12/30 12:04:02;;;;;;;23.10;11.60;;;;;7.20;97737.20;;;;108798;1270;41120;-68
2021/12/30 12:06:44;;;;;;;18.60;9.40;;;;;7.20;97730.00;;;;108731;1269;41593;-70
2021/12/30 12:09:23;;;;;;;17.00;9.20;;;;;7.30;97731.00;;;;108784;1266;41174;-70
2021/12/30 12:11:59;;;;;;;19.10;9.50;;;;;7.40;97733.20;;;;108821;1268;41232;-68
2021/12/30 12:14:31;;;;;;;21.30;11.20;;;;;7.42;97733.00;;;;108746;1270;41767;-69
2021/12/30 12:17:11;;;;;;;22.70;12.80;;;;;7.50;97737.80;;;;108767;1270;41690;-68
2021/12/30 12:19:46;;;;;;;24.80;13.40;;;;;7.50;97740.20;;;;108818;1270;41890;-64
2021/12/30 12:22:18;;;;;;;20.90;11.60;;;;;7.40;97738.80;;;;108801;1270;42406;-66
2021/12/30 12:25:12;;;;;;;18.00;10.20;;;;;7.30;97731.60;;;;108777;1270;41715;-67
2021/12/30 12:27:46;;;;;;;19.60;10.70;;;;;7.30;97737.80;;;;108774;1268;41175;-66
2021/12/30 12:30:37;;;;;;;22.00;12.00;;;;;7.30;97736.40;;;;108745;1269;41593;-68